sensor_id;sensor_type;location;lat;lon;timestamp;P1;durP1;ratioP1;P2;durP2;ratioP2
8425;SDS011;4250;50.006;8.286;2022-07-06T00:00:46;11.80;;;3.13;;
8425;SDS011;4250;50.006;8.286;2022-07-06T00:03:12;5.50;;;2.60;;
8425;SDS011;4250;50.006;8.286;2022-07-06T00:05:37;6.87;;;2.50;;
8425;SDS011;4250;50.006;8.286;2022-07-06T00:08:02;4.47;;;2.33;;
8425;SDS011;4250;50.006;8.286;2022-07-06T00:10:27;6.43;;;2.50;;
8425;SDS011;4250;50.006;8.286;2022-07-06T00:12:53;5.80;;;2.70;;
8425;SDS011;4250;50.006;8.286;2022-07-06T00:15:18;4.43;;;2.40;;
8425;SDS011;4250;50.006;8.286;2022-07-06T00:17:43;5.30;;;2.57;;
8425;SDS011;4250;50.006;8.286;2022-07-06T00:20:11;5.53;;;2.33;;
8425;SDS011;4250;50.006;8.286;2022-07-06T00:22:36;2.37;;;2.07;;
8425;SDS011;4250;50.006;8.286;2022-07-06T00:25:02;5.23;;;2.60;;
8425;SDS011;4250;50.006;8.286;2022-07-06T00:27:27;5.57;;;2.53;;
8425;SDS011;4250;50.006;8.286;2022-07-06T00:29:52;6.77;;;2.50;;
8425;SDS011;4250;50.006;8.286;2022-07-06T00:32:17;3.67;;;2.40;;
8425;SDS011;4250;50.006;8.286;2022-07-06T00:34:43;5.53;;;2.83;;
8425;SDS011;4250;50.006;8.286;2022-07-06T00:37:09;7.57;;;2.43;;
8425;SDS011;4250;50.006;8.286;2022-07-06T00:39:34;6.20;;;2.37;;
8425;SDS011;4250;50.006;8.286;2022-07-06T00:42:00;4.80;;;2.63;;
8425;SDS011;4250;50.006;8.286;2022-07-06T00:44:25;4.87;;;2.00;;
8425;SDS011;4250;50.006;8.286;2022-07-06T00:46:50;7.60;;;2.60;;
8425;SDS011;4250;50.006;8.286;2022-07-06T00:49:16;3.97;;;2.20;;
8425;SDS011;4250;50.006;8.286;2022-07-06T00:52:00;4.70;;;2.27;;
8425;SDS011;4250;50.006;8.286;2022-07-06T00:54:30;4.87;;;2.23;;
8425;SDS011;4250;50.006;8.286;2022-07-06T00:56:56;3.07;;;1.83;;
8425;SDS011;4250;50.006;8.286;2022-07-06T00:59:23;4.57;;;2.37;;
8425;SDS011;4250;50.006;8.286;2022-07-06T01:01:51;4.00;;;2.27;;
8425;SDS011;4250;50.006;8.286;2022-07-06T01:04:17;3.03;;;2.30;;
8425;SDS011;4250;50.006;8.286;2022-07-06T01:06:43;6.40;;;2.60;;
8425;SDS011;4250;50.006;8.286;2022-07-06T01:09:12;3.17;;;2.27;;
8425;SDS011;4250;50.006;8.286;2022-07-06T01:11:38;6.33;;;2.57;;
8425;SDS011;4250;50.006;8.286;2022-07-06T01:14:03;6.37;;;2.63;;
8425;SDS011;4250;50.006;8.286;2022-07-06T01:16:29;8.03;;;2.67;;
8425;SDS011;4250;50.006;8.286;2022-07-06T01:18:55;5.90;;;2.50;;
8425;SDS011;4250;50.006;8.286;2022-07-06T01:21:20;7.10;;;2.53;;
8425;SDS011;4250;50.006;8.286;2022-07-06T01:23:46;3.67;;;2.60;;
8425;SDS011;4250;50.006;8.286;2022-07-06T01:26:13;6.07;;;2.47;;
8425;SDS011;4250;50.006;8.286;2022-07-06T01:28:39;2.77;;;2.00;;
8425;SDS011;4250;50.006;8.286;2022-07-06T01:31:05;4.10;;;2.20;;
8425;SDS011;4250;50.006;8.286;2022-07-06T01:33:30;3.27;;;2.30;;
8425;SDS011;4250;50.006;8.286;2022-07-06T01:35:58;3.43;;;2.00;;
8425;SDS011;4250;50.006;8.286;2022-07-06T01:38:24;2.47;;;2.17;;
8425;SDS011;4250;50.006;8.286;2022-07-06T01:40:49;2.93;;;1.87;;
8425;SDS011;4250;50.006;8.286;2022-07-06T01:43:14;3.67;;;1.77;;
8425;SDS011;4250;50.006;8.286;2022-07-06T01:45:39;5.70;;;2.10;;
8425;SDS011;4250;50.006;8.286;2022-07-06T01:48:06;4.30;;;1.70;;
8425;SDS011;4250;50.006;8.286;2022-07-06T01:50:34;4.57;;;1.60;;
8425;SDS011;4250;50.006;8.286;2022-07-06T01:53:00;2.93;;;1.50;;
8425;SDS011;4250;50.006;8.286;2022-07-06T01:55:26;2.90;;;1.73;;
8425;SDS011;4250;50.006;8.286;2022-07-06T01:57:51;3.23;;;1.97;;
8425;SDS011;4250;50.006;8.286;2022-07-06T02:00:21;2.83;;;1.93;;
8425;SDS011;4250;50.006;8.286;2022-07-06T02:02:49;4.57;;;1.90;;
8425;SDS011;4250;50.006;8.286;2022-07-06T02:05:14;4.90;;;2.70;;
8425;SDS011;4250;50.006;8.286;2022-07-06T02:07:40;7.87;;;2.20;;
8425;SDS011;4250;50.006;8.286;2022-07-06T02:10:07;5.77;;;2.53;;
8425;SDS011;4250;50.006;8.286;2022-07-06T02:12:33;4.57;;;1.77;;
8425;SDS011;4250;50.006;8.286;2022-07-06T02:14:58;3.73;;;1.60;;
8425;SDS011;4250;50.006;8.286;2022-07-06T02:17:23;3.57;;;1.70;;
8425;SDS011;4250;50.006;8.286;2022-07-06T02:19:49;4.97;;;2.10;;
8425;SDS011;4250;50.006;8.286;2022-07-06T02:22:14;2.97;;;1.97;;
8425;SDS011;4250;50.006;8.286;2022-07-06T02:24:42;3.33;;;2.10;;
8425;SDS011;4250;50.006;8.286;2022-07-06T02:27:08;4.73;;;2.20;;
8425;SDS011;4250;50.006;8.286;2022-07-06T02:29:34;3.30;;;1.80;;
8425;SDS011;4250;50.006;8.286;2022-07-06T02:31:59;3.47;;;2.10;;
8425;SDS011;4250;50.006;8.286;2022-07-06T02:34:24;3.13;;;1.83;;
8425;SDS011;4250;50.006;8.286;2022-07-06T02:36:49;2.87;;;2.10;;
8425;SDS011;4250;50.006;8.286;2022-07-06T02:39:16;4.07;;;2.30;;
8425;SDS011;4250;50.006;8.286;2022-07-06T02:41:42;5.10;;;2.37;;
8425;SDS011;4250;50.006;8.286;2022-07-06T02:44:07;6.77;;;1.90;;
8425;SDS011;4250;50.006;8.286;2022-07-06T02:46:33;4.47;;;1.80;;
8425;SDS011;4250;50.006;8.286;2022-07-06T02:48:59;4.00;;;1.63;;
8425;SDS011;4250;50.006;8.286;2022-07-06T02:51:24;3.20;;;1.97;;
8425;SDS011;4250;50.006;8.286;2022-07-06T02:53:49;4.83;;;1.90;;
8425;SDS011;4250;50.006;8.286;2022-07-06T02:56:17;6.77;;;2.00;;
8425;SDS011;4250;50.006;8.286;2022-07-06T02:58:42;7.10;;;2.10;;
8425;SDS011;4250;50.006;8.286;2022-07-06T03:01:07;4.67;;;2.00;;
8425;SDS011;4250;50.006;8.286;2022-07-06T03:03:34;4.37;;;2.40;;
8425;SDS011;4250;50.006;8.286;2022-07-06T03:06:00;4.37;;;1.90;;
8425;SDS011;4250;50.006;8.286;2022-07-06T03:08:26;2.67;;;1.90;;
8425;SDS011;4250;50.006;8.286;2022-07-06T03:10:52;6.87;;;2.00;;
8425;SDS011;4250;50.006;8.286;2022-07-06T03:13:17;3.93;;;2.10;;
8425;SDS011;4250;50.006;8.286;2022-07-06T03:15:44;6.47;;;2.30;;
8425;SDS011;4250;50.006;8.286;2022-07-06T03:18:09;3.67;;;2.10;;
8425;SDS011;4250;50.006;8.286;2022-07-06T03:20:34;4.27;;;2.60;;
8425;SDS011;4250;50.006;8.286;2022-07-06T03:23:12;5.60;;;2.40;;
8425;SDS011;4250;50.006;8.286;2022-07-06T03:25:37;4.23;;;2.40;;
8425;SDS011;4250;50.006;8.286;2022-07-06T03:28:02;6.73;;;2.73;;
8425;SDS011;4250;50.006;8.286;2022-07-06T03:30:28;6.67;;;2.37;;
8425;SDS011;4250;50.006;8.286;2022-07-06T03:32:54;5.83;;;2.83;;
8425;SDS011;4250;50.006;8.286;2022-07-06T03:35:21;7.10;;;2.97;;
8425;SDS011;4250;50.006;8.286;2022-07-06T03:37:49;4.67;;;2.67;;
8425;SDS011;4250;50.006;8.286;2022-07-06T03:40:14;5.47;;;2.97;;
8425;SDS011;4250;50.006;8.286;2022-07-06T03:42:40;5.33;;;3.00;;
8425;SDS011;4250;50.006;8.286;2022-07-06T03:45:08;4.57;;;3.13;;
8425;SDS011;4250;50.006;8.286;2022-07-06T03:47:34;9.13;;;3.50;;
8425;SDS011;4250;50.006;8.286;2022-07-06T03:49:59;7.33;;;3.17;;
8425;SDS011;4250;50.006;8.286;2022-07-06T03:52:25;5.07;;;3.17;;
8425;SDS011;4250;50.006;8.286;2022-07-06T03:54:55;6.77;;;3.10;;
8425;SDS011;4250;50.006;8.286;2022-07-06T03:57:24;6.40;;;3.37;;
8425;SDS011;4250;50.006;8.286;2022-07-06T03:59:53;7.03;;;3.33;;
8425;SDS011;4250;50.006;8.286;2022-07-06T04:02:20;6.60;;;3.30;;
8425;SDS011;4250;50.006;8.286;2022-07-06T04:04:48;9.03;;;3.60;;
8425;SDS011;4250;50.006;8.286;2022-07-06T04:07:14;6.43;;;3.10;;
8425;SDS011;4250;50.006;8.286;2022-07-06T04:09:40;9.67;;;3.37;;
8425;SDS011;4250;50.006;8.286;2022-07-06T04:12:06;8.63;;;3.90;;
8425;SDS011;4250;50.006;8.286;2022-07-06T04:14:31;6.57;;;3.00;;
8425;SDS011;4250;50.006;8.286;2022-07-06T04:16:57;7.47;;;3.80;;
8425;SDS011;4250;50.006;8.286;2022-07-06T04:19:25;9.83;;;3.50;;
8425;SDS011;4250;50.006;8.286;2022-07-06T04:21:51;10.70;;;3.67;;
8425;SDS011;4250;50.006;8.286;2022-07-06T04:24:18;9.17;;;3.33;;
8425;SDS011;4250;50.006;8.286;2022-07-06T04:26:44;7.43;;;2.97;;
8425;SDS011;4250;50.006;8.286;2022-07-06T04:29:09;7.43;;;3.50;;
8425;SDS011;4250;50.006;8.286;2022-07-06T04:31:37;8.17;;;3.20;;
8425;SDS011;4250;50.006;8.286;2022-07-06T04:34:03;4.53;;;2.70;;
8425;SDS011;4250;50.006;8.286;2022-07-06T04:36:29;7.80;;;3.17;;
8425;SDS011;4250;50.006;8.286;2022-07-06T04:38:58;6.90;;;3.10;;
8425;SDS011;4250;50.006;8.286;2022-07-06T04:41:24;6.93;;;2.90;;
8425;SDS011;4250;50.006;8.286;2022-07-06T04:43:51;6.47;;;2.73;;
8425;SDS011;4250;50.006;8.286;2022-07-06T04:46:17;6.40;;;3.47;;
8425;SDS011;4250;50.006;8.286;2022-07-06T04:48:46;6.23;;;3.73;;
8425;SDS011;4250;50.006;8.286;2022-07-06T04:51:18;5.63;;;3.10;;
8425;SDS011;4250;50.006;8.286;2022-07-06T04:53:43;7.90;;;3.60;;
8425;SDS011;4250;50.006;8.286;2022-07-06T04:56:09;4.53;;;2.97;;
8425;SDS011;4250;50.006;8.286;2022-07-06T04:58:37;10.20;;;3.63;;
8425;SDS011;4250;50.006;8.286;2022-07-06T05:01:02;6.40;;;3.23;;
8425;SDS011;4250;50.006;8.286;2022-07-06T05:03:28;6.20;;;2.80;;
8425;SDS011;4250;50.006;8.286;2022-07-06T05:05:53;9.63;;;3.40;;
8425;SDS011;4250;50.006;8.286;2022-07-06T05:08:20;5.30;;;2.93;;
8425;SDS011;4250;50.006;8.286;2022-07-06T05:10:46;5.73;;;3.43;;
8425;SDS011;4250;50.006;8.286;2022-07-06T05:13:11;7.23;;;3.27;;
8425;SDS011;4250;50.006;8.286;2022-07-06T05:15:36;7.27;;;3.30;;
8425;SDS011;4250;50.006;8.286;2022-07-06T05:18:03;6.70;;;3.47;;
8425;SDS011;4250;50.006;8.286;2022-07-06T05:20:28;7.03;;;3.37;;
8425;SDS011;4250;50.006;8.286;2022-07-06T05:22:54;7.87;;;3.80;;
8425;SDS011;4250;50.006;8.286;2022-07-06T05:25:26;12.53;;;3.47;;
8425;SDS011;4250;50.006;8.286;2022-07-06T05:27:52;3.97;;;2.70;;
8425;SDS011;4250;50.006;8.286;2022-07-06T05:30:18;7.50;;;3.27;;
8425;SDS011;4250;50.006;8.286;2022-07-06T05:32:44;8.13;;;2.90;;
8425;SDS011;4250;50.006;8.286;2022-07-06T05:35:11;5.77;;;2.50;;
8425;SDS011;4250;50.006;8.286;2022-07-06T05:37:40;4.63;;;3.13;;
8425;SDS011;4250;50.006;8.286;2022-07-06T05:40:05;7.27;;;3.33;;
8425;SDS011;4250;50.006;8.286;2022-07-06T05:42:31;3.93;;;3.20;;
8425;SDS011;4250;50.006;8.286;2022-07-06T05:44:56;5.30;;;2.97;;
8425;SDS011;4250;50.006;8.286;2022-07-06T05:47:24;5.73;;;3.43;;
8425;SDS011;4250;50.006;8.286;2022-07-06T05:50:09;3.37;;;2.90;;
8425;SDS011;4250;50.006;8.286;2022-07-06T05:52:44;9.10;;;2.80;;
8425;SDS011;4250;50.006;8.286;2022-07-06T05:55:20;8.87;;;2.93;;
8425;SDS011;4250;50.006;8.286;2022-07-06T05:57:54;7.63;;;3.20;;
8425;SDS011;4250;50.006;8.286;2022-07-06T06:00:21;6.77;;;3.53;;
8425;SDS011;4250;50.006;8.286;2022-07-06T06:02:51;6.80;;;3.30;;
8425;SDS011;4250;50.006;8.286;2022-07-06T06:05:18;5.20;;;2.63;;
8425;SDS011;4250;50.006;8.286;2022-07-06T06:07:45;5.07;;;3.20;;
8425;SDS011;4250;50.006;8.286;2022-07-06T06:10:13;6.67;;;2.80;;
8425;SDS011;4250;50.006;8.286;2022-07-06T06:12:39;6.03;;;3.10;;
8425;SDS011;4250;50.006;8.286;2022-07-06T06:15:05;4.87;;;3.07;;
8425;SDS011;4250;50.006;8.286;2022-07-06T06:17:30;9.20;;;3.07;;
8425;SDS011;4250;50.006;8.286;2022-07-06T06:19:56;6.80;;;2.60;;
8425;SDS011;4250;50.006;8.286;2022-07-06T06:22:21;5.27;;;2.70;;
8425;SDS011;4250;50.006;8.286;2022-07-06T06:24:47;4.67;;;2.80;;
8425;SDS011;4250;50.006;8.286;2022-07-06T06:27:12;7.03;;;3.00;;
8425;SDS011;4250;50.006;8.286;2022-07-06T06:29:39;5.43;;;2.90;;
8425;SDS011;4250;50.006;8.286;2022-07-06T06:34:57;8.20;;;3.10;;
8425;SDS011;4250;50.006;8.286;2022-07-06T06:37:22;4.90;;;2.63;;
8425;SDS011;4250;50.006;8.286;2022-07-06T06:39:48;4.47;;;2.70;;
8425;SDS011;4250;50.006;8.286;2022-07-06T06:42:13;6.20;;;2.80;;
8425;SDS011;4250;50.006;8.286;2022-07-06T06:44:40;6.90;;;2.90;;
8425;SDS011;4250;50.006;8.286;2022-07-06T06:47:06;4.03;;;2.70;;
8425;SDS011;4250;50.006;8.286;2022-07-06T06:49:31;4.63;;;3.00;;
8425;SDS011;4250;50.006;8.286;2022-07-06T06:51:56;7.03;;;2.67;;
8425;SDS011;4250;50.006;8.286;2022-07-06T06:54:22;5.63;;;2.43;;
8425;SDS011;4250;50.006;8.286;2022-07-06T06:56:47;5.23;;;2.50;;
8425;SDS011;4250;50.006;8.286;2022-07-06T06:59:12;5.37;;;2.77;;
8425;SDS011;4250;50.006;8.286;2022-07-06T07:01:39;5.63;;;2.70;;
8425;SDS011;4250;50.006;8.286;2022-07-06T07:04:07;4.27;;;2.70;;
8425;SDS011;4250;50.006;8.286;2022-07-06T07:06:33;6.33;;;2.70;;
8425;SDS011;4250;50.006;8.286;2022-07-06T07:08:58;5.30;;;2.03;;
8425;SDS011;4250;50.006;8.286;2022-07-06T07:11:26;4.53;;;1.80;;
8425;SDS011;4250;50.006;8.286;2022-07-06T07:16:38;2.23;;;2.03;;
8425;SDS011;4250;50.006;8.286;2022-07-06T07:19:06;5.50;;;2.10;;
8425;SDS011;4250;50.006;8.286;2022-07-06T07:24:23;4.53;;;2.10;;
8425;SDS011;4250;50.006;8.286;2022-07-06T07:26:59;3.70;;;2.00;;
8425;SDS011;4250;50.006;8.286;2022-07-06T07:29:25;4.80;;;2.30;;
8425;SDS011;4250;50.006;8.286;2022-07-06T07:31:50;8.53;;;2.33;;
8425;SDS011;4250;50.006;8.286;2022-07-06T07:36:57;5.33;;;1.97;;
8425;SDS011;4250;50.006;8.286;2022-07-06T07:39:30;4.00;;;2.43;;
8425;SDS011;4250;50.006;8.286;2022-07-06T07:44:43;5.20;;;2.00;;
8425;SDS011;4250;50.006;8.286;2022-07-06T07:47:08;2.73;;;1.80;;
8425;SDS011;4250;50.006;8.286;2022-07-06T07:49:35;5.83;;;2.40;;
8425;SDS011;4250;50.006;8.286;2022-07-06T07:52:00;3.07;;;1.93;;
8425;SDS011;4250;50.006;8.286;2022-07-06T07:54:41;2.30;;;1.83;;
8425;SDS011;4250;50.006;8.286;2022-07-06T07:57:06;5.57;;;2.00;;
8425;SDS011;4250;50.006;8.286;2022-07-06T07:59:41;4.00;;;1.90;;
8425;SDS011;4250;50.006;8.286;2022-07-06T08:02:07;6.40;;;1.90;;
8425;SDS011;4250;50.006;8.286;2022-07-06T08:10:25;3.33;;;2.00;;
8425;SDS011;4250;50.006;8.286;2022-07-06T08:13:00;5.03;;;1.60;;
8425;SDS011;4250;50.006;8.286;2022-07-06T08:18:16;4.97;;;1.77;;
8425;SDS011;4250;50.006;8.286;2022-07-06T08:20:53;2.27;;;1.50;;
8425;SDS011;4250;50.006;8.286;2022-07-06T08:23:24;7.60;;;1.67;;
8425;SDS011;4250;50.006;8.286;2022-07-06T08:26:08;4.77;;;1.87;;
8425;SDS011;4250;50.006;8.286;2022-07-06T08:28:39;2.80;;;1.83;;
8425;SDS011;4250;50.006;8.286;2022-07-06T08:31:04;6.53;;;1.83;;
8425;SDS011;4250;50.006;8.286;2022-07-06T08:33:30;5.30;;;2.10;;
8425;SDS011;4250;50.006;8.286;2022-07-06T08:36:01;3.13;;;1.80;;
8425;SDS011;4250;50.006;8.286;2022-07-06T08:38:27;5.93;;;1.90;;
8425;SDS011;4250;50.006;8.286;2022-07-06T08:41:10;3.50;;;1.80;;
8425;SDS011;4250;50.006;8.286;2022-07-06T08:43:36;4.90;;;2.07;;
8425;SDS011;4250;50.006;8.286;2022-07-06T08:46:01;3.90;;;1.70;;
8425;SDS011;4250;50.006;8.286;2022-07-06T08:48:26;2.73;;;1.97;;
8425;SDS011;4250;50.006;8.286;2022-07-06T08:50:53;3.80;;;1.53;;
8425;SDS011;4250;50.006;8.286;2022-07-06T08:53:18;2.70;;;1.60;;
8425;SDS011;4250;50.006;8.286;2022-07-06T08:55:44;5.20;;;1.63;;
8425;SDS011;4250;50.006;8.286;2022-07-06T08:58:09;4.17;;;1.60;;
8425;SDS011;4250;50.006;8.286;2022-07-06T09:00:35;4.80;;;1.53;;
8425;SDS011;4250;50.006;8.286;2022-07-06T09:03:01;3.53;;;1.93;;
8425;SDS011;4250;50.006;8.286;2022-07-06T09:05:26;3.27;;;1.60;;
8425;SDS011;4250;50.006;8.286;2022-07-06T09:07:53;2.70;;;1.50;;
8425;SDS011;4250;50.006;8.286;2022-07-06T09:11:03;5.43;;;1.67;;
8425;SDS011;4250;50.006;8.286;2022-07-06T09:13:28;2.50;;;1.40;;
8425;SDS011;4250;50.006;8.286;2022-07-06T09:15:54;2.37;;;1.70;;
8425;SDS011;4250;50.006;8.286;2022-07-06T09:18:20;4.27;;;2.07;;
8425;SDS011;4250;50.006;8.286;2022-07-06T09:20:46;1.63;;;1.50;;
8425;SDS011;4250;50.006;8.286;2022-07-06T09:23:14;1.90;;;1.40;;
8425;SDS011;4250;50.006;8.286;2022-07-06T09:25:40;4.30;;;1.80;;
8425;SDS011;4250;50.006;8.286;2022-07-06T09:28:05;2.80;;;1.37;;
8425;SDS011;4250;50.006;8.286;2022-07-06T09:30:31;2.40;;;1.77;;
8425;SDS011;4250;50.006;8.286;2022-07-06T09:32:57;3.33;;;2.00;;
8425;SDS011;4250;50.006;8.286;2022-07-06T09:35:36;3.63;;;1.90;;
8425;SDS011;4250;50.006;8.286;2022-07-06T09:38:14;3.03;;;2.13;;
8425;SDS011;4250;50.006;8.286;2022-07-06T09:40:55;3.67;;;2.30;;
8425;SDS011;4250;50.006;8.286;2022-07-06T09:43:21;2.70;;;2.50;;
8425;SDS011;4250;50.006;8.286;2022-07-06T09:45:51;2.97;;;2.53;;
8425;SDS011;4250;50.006;8.286;2022-07-06T09:48:17;4.10;;;2.63;;
8425;SDS011;4250;50.006;8.286;2022-07-06T09:50:50;4.87;;;3.00;;
8425;SDS011;4250;50.006;8.286;2022-07-06T09:53:17;5.37;;;3.10;;
8425;SDS011;4250;50.006;8.286;2022-07-06T09:55:49;4.67;;;3.10;;
8425;SDS011;4250;50.006;8.286;2022-07-06T09:58:15;5.73;;;2.80;;
8425;SDS011;4250;50.006;8.286;2022-07-06T10:00:43;3.50;;;2.93;;
8425;SDS011;4250;50.006;8.286;2022-07-06T10:03:08;4.97;;;3.13;;
8425;SDS011;4250;50.006;8.286;2022-07-06T10:05:37;4.27;;;3.07;;
8425;SDS011;4250;50.006;8.286;2022-07-06T10:08:03;7.07;;;3.00;;
8425;SDS011;4250;50.006;8.286;2022-07-06T10:10:31;3.40;;;3.07;;
8425;SDS011;4250;50.006;8.286;2022-07-06T10:13:04;6.07;;;2.83;;
8425;SDS011;4250;50.006;8.286;2022-07-06T10:15:40;2.90;;;2.67;;
8425;SDS011;4250;50.006;8.286;2022-07-06T10:18:07;4.50;;;2.50;;
8425;SDS011;4250;50.006;8.286;2022-07-06T10:20:34;2.97;;;2.73;;
8425;SDS011;4250;50.006;8.286;2022-07-06T10:23:02;5.20;;;2.60;;
8425;SDS011;4250;50.006;8.286;2022-07-06T10:25:28;2.77;;;2.40;;
8425;SDS011;4250;50.006;8.286;2022-07-06T10:27:54;4.40;;;2.60;;
8425;SDS011;4250;50.006;8.286;2022-07-06T10:36:27;2.77;;;2.00;;
8425;SDS011;4250;50.006;8.286;2022-07-06T10:38:53;3.17;;;1.80;;
8425;SDS011;4250;50.006;8.286;2022-07-06T10:41:18;3.40;;;2.30;;
8425;SDS011;4250;50.006;8.286;2022-07-06T10:43:55;2.27;;;1.87;;
8425;SDS011;4250;50.006;8.286;2022-07-06T10:46:40;2.07;;;1.70;;
8425;SDS011;4250;50.006;8.286;2022-07-06T10:49:14;3.00;;;1.70;;
8425;SDS011;4250;50.006;8.286;2022-07-06T10:51:40;4.10;;;2.00;;
8425;SDS011;4250;50.006;8.286;2022-07-06T10:54:05;2.57;;;1.80;;
8425;SDS011;4250;50.006;8.286;2022-07-06T10:56:31;2.77;;;1.63;;
8425;SDS011;4250;50.006;8.286;2022-07-06T10:59:01;2.63;;;1.73;;
8425;SDS011;4250;50.006;8.286;2022-07-06T11:01:27;3.10;;;1.37;;
8425;SDS011;4250;50.006;8.286;2022-07-06T11:06:22;2.00;;;1.60;;
8425;SDS011;4250;50.006;8.286;2022-07-06T11:09:02;1.97;;;1.33;;
8425;SDS011;4250;50.006;8.286;2022-07-06T11:17:03;2.37;;;1.23;;
8425;SDS011;4250;50.006;8.286;2022-07-06T11:19:30;3.73;;;1.70;;
8425;SDS011;4250;50.006;8.286;2022-07-06T11:21:57;3.30;;;1.40;;
8425;SDS011;4250;50.006;8.286;2022-07-06T11:24:26;3.20;;;1.30;;
8425;SDS011;4250;50.006;8.286;2022-07-06T11:26:52;4.45;;;1.38;;
8425;SDS011;4250;50.006;8.286;2022-07-06T11:29:19;1.92;;;1.77;;
8425;SDS011;4250;50.006;8.286;2022-07-06T11:31:53;3.60;;;2.45;;
8425;SDS011;4250;50.006;8.286;2022-07-06T11:34:22;5.93;;;1.77;;
8425;SDS011;4250;50.006;8.286;2022-07-06T11:37:10;1.92;;;1.40;;
8425;SDS011;4250;50.006;8.286;2022-07-06T11:39:40;1.25;;;1.15;;
8425;SDS011;4250;50.006;8.286;2022-07-06T11:42:08;2.55;;;1.25;;
8425;SDS011;4250;50.006;8.286;2022-07-06T11:44:34;3.10;;;1.27;;
8425;SDS011;4250;50.006;8.286;2022-07-06T11:46:59;1.83;;;1.30;;
8425;SDS011;4250;50.006;8.286;2022-07-06T11:49:32;1.90;;;1.33;;
8425;SDS011;4250;50.006;8.286;2022-07-06T11:54:40;2.05;;;1.17;;
8425;SDS011;4250;50.006;8.286;2022-07-06T11:57:07;2.85;;;1.52;;
8425;SDS011;4250;50.006;8.286;2022-07-06T11:59:55;1.38;;;1.15;;
8425;SDS011;4250;50.006;8.286;2022-07-06T12:02:24;2.80;;;1.30;;
8425;SDS011;4250;50.006;8.286;2022-07-06T12:04:50;3.03;;;1.50;;
8425;SDS011;4250;50.006;8.286;2022-07-06T12:07:16;1.80;;;1.38;;
8425;SDS011;4250;50.006;8.286;2022-07-06T12:09:42;3.15;;;1.30;;
8425;SDS011;4250;50.006;8.286;2022-07-06T12:12:08;5.38;;;2.17;;
8425;SDS011;4250;50.006;8.286;2022-07-06T12:14:35;2.72;;;1.50;;
8425;SDS011;4250;50.006;8.286;2022-07-06T12:19:33;1.38;;;1.10;;
8425;SDS011;4250;50.006;8.286;2022-07-06T12:21:59;2.83;;;1.35;;
8425;SDS011;4250;50.006;8.286;2022-07-06T12:24:29;2.92;;;1.30;;
8425;SDS011;4250;50.006;8.286;2022-07-06T12:29:42;2.42;;;1.80;;
8425;SDS011;4250;50.006;8.286;2022-07-06T12:32:13;3.17;;;1.58;;
8425;SDS011;4250;50.006;8.286;2022-07-06T12:34:39;1.15;;;1.00;;
8425;SDS011;4250;50.006;8.286;2022-07-06T12:37:05;1.83;;;1.70;;
8425;SDS011;4250;50.006;8.286;2022-07-06T12:39:32;3.50;;;1.52;;
8425;SDS011;4250;50.006;8.286;2022-07-06T12:42:06;5.22;;;2.63;;
8425;SDS011;4250;50.006;8.286;2022-07-06T12:44:32;2.25;;;1.90;;
8425;SDS011;4250;50.006;8.286;2022-07-06T12:47:06;1.67;;;1.58;;
8425;SDS011;4250;50.006;8.286;2022-07-06T12:49:32;3.63;;;1.50;;
8425;SDS011;4250;50.006;8.286;2022-07-06T12:52:16;4.82;;;1.80;;
8425;SDS011;4250;50.006;8.286;2022-07-06T12:54:48;2.47;;;1.55;;
8425;SDS011;4250;50.006;8.286;2022-07-06T12:57:42;1.77;;;1.40;;
8425;SDS011;4250;50.006;8.286;2022-07-06T13:00:07;3.60;;;1.50;;
8425;SDS011;4250;50.006;8.286;2022-07-06T13:02:34;1.85;;;1.48;;
8425;SDS011;4250;50.006;8.286;2022-07-06T13:05:14;1.98;;;1.38;;
8425;SDS011;4250;50.006;8.286;2022-07-06T13:07:46;2.85;;;1.60;;
8425;SDS011;4250;50.006;8.286;2022-07-06T13:10:12;3.00;;;1.60;;
8425;SDS011;4250;50.006;8.286;2022-07-06T13:12:38;3.63;;;1.58;;
8425;SDS011;4250;50.006;8.286;2022-07-06T13:15:04;1.30;;;1.20;;
8425;SDS011;4250;50.006;8.286;2022-07-06T13:17:32;2.65;;;1.35;;
8425;SDS011;4250;50.006;8.286;2022-07-06T13:19:57;3.22;;;1.40;;
8425;SDS011;4250;50.006;8.286;2022-07-06T13:22:23;4.40;;;1.60;;
8425;SDS011;4250;50.006;8.286;2022-07-06T13:24:48;2.08;;;1.42;;
8425;SDS011;4250;50.006;8.286;2022-07-06T13:27:14;3.53;;;1.50;;
8425;SDS011;4250;50.006;8.286;2022-07-06T13:29:40;2.50;;;1.50;;
8425;SDS011;4250;50.006;8.286;2022-07-06T13:32:12;3.00;;;1.50;;
8425;SDS011;4250;50.006;8.286;2022-07-06T13:34:38;5.45;;;1.50;;
8425;SDS011;4250;50.006;8.286;2022-07-06T13:45:01;3.78;;;1.10;;
8425;SDS011;4250;50.006;8.286;2022-07-06T13:50:14;3.35;;;1.05;;
8425;SDS011;4250;50.006;8.286;2022-07-06T13:52:40;1.73;;;1.30;;
8425;SDS011;4250;50.006;8.286;2022-07-06T13:55:05;3.17;;;1.33;;
8425;SDS011;4250;50.006;8.286;2022-07-06T13:57:34;3.00;;;1.50;;
8425;SDS011;4250;50.006;8.286;2022-07-06T14:00:00;2.55;;;1.50;;
8425;SDS011;4250;50.006;8.286;2022-07-06T14:02:41;4.50;;;1.55;;
8425;SDS011;4250;50.006;8.286;2022-07-06T14:05:12;6.95;;;1.42;;
8425;SDS011;4250;50.006;8.286;2022-07-06T14:07:38;2.53;;;1.40;;
8425;SDS011;4250;50.006;8.286;2022-07-06T14:12:45;3.35;;;1.52;;
8425;SDS011;4250;50.006;8.286;2022-07-06T14:15:11;2.70;;;1.20;;
8425;SDS011;4250;50.006;8.286;2022-07-06T14:17:36;2.40;;;1.27;;
8425;SDS011;4250;50.006;8.286;2022-07-06T14:20:02;3.15;;;1.48;;
8425;SDS011;4250;50.006;8.286;2022-07-06T14:22:27;2.60;;;1.60;;
8425;SDS011;4250;50.006;8.286;2022-07-06T14:24:53;2.72;;;1.10;;
8425;SDS011;4250;50.006;8.286;2022-07-06T14:27:22;5.40;;;1.50;;
8425;SDS011;4250;50.006;8.286;2022-07-06T14:29:48;1.77;;;1.30;;
8425;SDS011;4250;50.006;8.286;2022-07-06T14:32:13;3.17;;;1.45;;
8425;SDS011;4250;50.006;8.286;2022-07-06T14:34:39;2.25;;;1.63;;
8425;SDS011;4250;50.006;8.286;2022-07-06T14:37:22;4.10;;;1.40;;
8425;SDS011;4250;50.006;8.286;2022-07-06T14:39:48;2.28;;;1.20;;
8425;SDS011;4250;50.006;8.286;2022-07-06T14:42:15;3.42;;;1.20;;
8425;SDS011;4250;50.006;8.286;2022-07-06T14:44:41;2.83;;;1.33;;
8425;SDS011;4250;50.006;8.286;2022-07-06T14:47:06;3.72;;;1.50;;
8425;SDS011;4250;50.006;8.286;2022-07-06T14:49:32;1.98;;;1.40;;
8425;SDS011;4250;50.006;8.286;2022-07-06T14:51:58;3.33;;;1.50;;
8425;SDS011;4250;50.006;8.286;2022-07-06T14:54:25;4.70;;;2.13;;
8425;SDS011;4250;50.006;8.286;2022-07-06T14:56:50;1.77;;;1.60;;
8425;SDS011;4250;50.006;8.286;2022-07-06T14:59:16;2.20;;;2.00;;
8425;SDS011;4250;50.006;8.286;2022-07-06T15:01:43;3.95;;;2.10;;
8425;SDS011;4250;50.006;8.286;2022-07-06T15:04:09;3.23;;;2.37;;
8425;SDS011;4250;50.006;8.286;2022-07-06T15:06:36;3.33;;;2.17;;
8425;SDS011;4250;50.006;8.286;2022-07-06T15:09:01;3.17;;;2.60;;
8425;SDS011;4250;50.006;8.286;2022-07-06T15:11:30;5.28;;;2.78;;
8425;SDS011;4250;50.006;8.286;2022-07-06T15:14:11;4.23;;;2.90;;
8425;SDS011;4250;50.006;8.286;2022-07-06T15:16:37;4.70;;;3.07;;
8425;SDS011;4250;50.006;8.286;2022-07-06T15:19:14;3.97;;;3.00;;
8425;SDS011;4250;50.006;8.286;2022-07-06T15:22:13;3.93;;;2.77;;
8425;SDS011;4250;50.006;8.286;2022-07-06T15:24:42;7.63;;;4.57;;
8425;SDS011;4250;50.006;8.286;2022-07-06T15:27:13;6.50;;;4.77;;
8425;SDS011;4250;50.006;8.286;2022-07-06T15:29:38;6.37;;;4.80;;
8425;SDS011;4250;50.006;8.286;2022-07-06T15:32:04;6.33;;;5.50;;
8425;SDS011;4250;50.006;8.286;2022-07-06T15:34:33;5.47;;;4.67;;
8425;SDS011;4250;50.006;8.286;2022-07-06T15:37:00;5.30;;;2.60;;
8425;SDS011;4250;50.006;8.286;2022-07-06T15:39:26;7.13;;;2.83;;
8425;SDS011;4250;50.006;8.286;2022-07-06T15:41:54;3.30;;;2.60;;
8425;SDS011;4250;50.006;8.286;2022-07-06T15:44:26;4.57;;;2.40;;
8425;SDS011;4250;50.006;8.286;2022-07-06T15:46:51;2.40;;;2.20;;
8425;SDS011;4250;50.006;8.286;2022-07-06T15:49:17;4.23;;;2.27;;
8425;SDS011;4250;50.006;8.286;2022-07-06T15:57:05;7.05;;;2.58;;
8425;SDS011;4250;50.006;8.286;2022-07-06T16:02:18;4.10;;;2.40;;
8425;SDS011;4250;50.006;8.286;2022-07-06T16:10:21;3.80;;;2.90;;
8425;SDS011;4250;50.006;8.286;2022-07-06T16:12:51;6.07;;;3.00;;
8425;SDS011;4250;50.006;8.286;2022-07-06T16:21:08;5.90;;;3.25;;
8425;SDS011;4250;50.006;8.286;2022-07-06T16:29:23;6.60;;;3.15;;
8425;SDS011;4250;50.006;8.286;2022-07-06T16:31:49;4.47;;;3.20;;
8425;SDS011;4250;50.006;8.286;2022-07-06T16:34:14;4.45;;;3.25;;
8425;SDS011;4250;50.006;8.286;2022-07-06T16:42:17;4.22;;;3.28;;
8425;SDS011;4250;50.006;8.286;2022-07-06T16:47:46;4.00;;;2.95;;
8425;SDS011;4250;50.006;8.286;2022-07-06T16:50:12;3.80;;;2.63;;